Time;durP1;ratioP1;P1;durP2;ratioP2;P2;SDS_P1;SDS_P2;PMS_P1;PMS_P2;Temp;Humidity;BMP_temperature;BMP_pressure;BME280_temperature;BME280_humidity;BME280_pressure;Samples;Min_cycle;Max_cycle;Signal;HPM_P1;HPM_P2
2023/10/07 00:01:08;;;;;;;4.13;1.98;;;14.00;99.90;;;14.18;100.00;101702.94;5277222;28;20093;-50
2023/10/07 00:03:42;;;;;;;4.72;2.38;;;14.00;99.90;;;14.21;100.00;101700.41;5289322;27;20439;-49
2023/10/07 00:06:16;;;;;;;4.07;1.85;;;14.00;99.90;;;14.22;100.00;101696.97;5273684;28;20502;-50
2023/10/07 00:08:50;;;;;;;6.28;2.22;;;14.00;99.90;;;14.22;100.00;101699.59;5295512;27;20066;-50
2023/10/07 00:11:22;;;;;;;5.20;2.50;;;14.00;99.90;;;14.22;100.00;101696.97;5270304;27;20055;-50
2023/10/07 00:13:55;;;;;;;4.72;2.03;;;14.00;99.90;;;14.20;100.00;101710.84;5274632;27;20048;-50
2023/10/07 00:16:28;;;;;;;6.55;2.65;;;14.00;99.90;;;14.18;100.00;101710.81;5270352;28;20047;-51
2023/10/07 00:19:03;;;;;;;5.15;2.38;;;14.00;99.90;;;14.18;100.00;101705.56;5269535;28;20118;-51
2023/10/07 00:21:55;;;;;;;5.10;2.88;;;14.00;99.90;;;14.18;100.00;101700.31;5273084;27;20466;-50
2023/10/07 00:24:34;;;;;;;4.60;1.95;;;13.90;99.90;;;14.18;100.00;101709.91;5272420;27;20039;-50
2023/10/07 00:27:20;;;;;;;5.07;2.33;;;14.00;99.90;;;14.20;100.00;101698.63;5285609;27;20082;-50
2023/10/07 00:29:59;;;;;;;5.88;2.25;;;14.00;99.90;;;14.22;100.00;101707.47;5293289;27;20051;-50
2023/10/07 00:32:32;;;;;;;5.57;2.30;;;14.00;99.90;;;14.25;100.00;101696.16;5269938;28;20047;-49
2023/10/07 00:35:07;;;;;;;5.13;1.92;;;14.00;99.90;;;14.26;100.00;101698.84;5269788;28;20487;-50
2023/10/07 00:37:44;;;;;;;4.35;1.98;;;14.10;99.90;;;14.26;100.00;101706.72;5269100;28;20509;-50
2023/10/07 00:40:30;;;;;;;4.00;1.92;;;14.10;99.90;;;14.26;100.00;101704.09;5275095;28;20062;-50
2023/10/07 00:43:08;;;;;;;4.45;1.98;;;14.10;99.90;;;14.25;100.00;101711.91;5270428;28;20052;-50
2023/10/07 00:45:41;;;;;;;3.88;1.77;;;14.00;99.90;;;14.22;100.00;101707.47;5273208;27;20124;-52
2023/10/07 00:48:16;;;;;;;5.30;2.13;;;14.00;99.90;;;14.18;100.00;101709.91;5275074;27;20039;-50
2023/10/07 00:50:50;;;;;;;3.38;2.20;;;14.00;99.90;;;14.15;100.00;101710.72;5272363;27;20445;-49
2023/10/07 00:53:29;;;;;;;4.40;1.90;;;14.00;99.90;;;14.11;100.00;101700.94;5272348;27;20519;-50
2023/10/07 00:56:03;;;;;;;3.47;1.70;;;13.90;99.90;;;14.09;100.00;101705.25;5269468;28;20044;-49
2023/10/07 00:58:36;;;;;;;6.68;2.38;;;13.90;99.90;;;14.04;100.00;101707.72;5283135;27;20035;-51
2023/10/07 01:01:09;;;;;;;4.38;1.98;;;13.80;99.90;;;14.05;100.00;101703.34;5277272;28;20036;-48
2023/10/07 01:03:55;;;;;;;4.80;2.10;;;13.80;99.90;;;14.03;100.00;101700.69;5269126;28;20166;-50
2023/10/07 01:06:31;;;;;;;4.18;1.70;;;13.80;99.90;;;14.02;100.00;101687.53;5273592;28;20043;-50
2023/10/07 01:09:14;;;;;;;5.15;2.42;;;13.80;99.90;;;14.02;100.00;101695.41;5276602;28;20070;-51
2023/10/07 01:11:46;;;;;;;4.68;1.88;;;13.80;99.90;;;14.01;100.00;101690.97;5270105;27;20051;-50
2023/10/07 01:14:21;;;;;;;3.88;1.73;;;13.80;99.90;;;13.99;100.00;101692.66;5272305;28;20060;-50
2023/10/07 01:16:53;;;;;;;5.90;2.30;;;13.80;99.90;;;13.95;100.00;101698.59;5268354;28;20153;-50
2023/10/07 01:19:29;;;;;;;4.97;2.10;;;13.70;99.90;;;13.92;100.00;101703.75;5270160;28;20038;-48
2023/10/07 01:22:09;;;;;;;7.03;2.00;;;13.70;99.90;;;13.91;100.00;101696.75;5287507;27;20126;-52
2023/10/07 01:24:49;;;;;;;4.28;2.00;;;13.80;99.90;;;13.85;100.00;101689.53;5272871;27;20103;-49
2023/10/07 01:27:34;;;;;;;4.95;2.20;;;13.70;99.90;;;13.77;100.00;101691.91;5274091;28;20052;-49
2023/10/07 01:30:15;;;;;;;3.88;1.90;;;13.60;99.90;;;13.73;100.00;101682.13;5279007;28;20044;-48
2023/10/07 01:32:57;;;;;;;3.85;1.65;;;13.60;99.90;;;13.73;100.00;101679.50;5278316;27;20054;-48
2023/10/07 01:35:38;;;;;;;4.78;2.00;;;13.50;99.90;;;13.75;100.00;101688.31;5272820;28;20052;-50
2023/10/07 01:38:17;;;;;;;5.38;2.28;;;13.60;99.90;;;13.79;100.00;101690.22;5269919;28;20039;-49
2023/10/07 01:41:04;;;;;;;3.53;2.25;;;13.60;99.90;;;13.80;100.00;101673.66;5270635;27;20405;-49
2023/10/07 01:43:40;;;;;;;3.95;1.80;;;13.60;99.90;;;13.84;100.00;101678.16;5270368;28;20092;-49
2023/10/07 01:46:12;;;;;;;3.38;1.92;;;13.60;99.90;;;13.88;100.00;101679.16;5276082;28;20134;-49
2023/10/07 01:48:54;;;;;;;5.63;2.75;;;13.70;99.90;;;13.94;100.00;101668.00;5270248;27;20409;-49
2023/10/07 01:51:27;;;;;;;5.40;2.10;;;13.70;99.90;;;13.96;100.00;101672.47;5277787;27;20096;-48
2023/10/07 01:54:03;;;;;;;4.32;2.10;;;13.80;99.90;;;13.98;100.00;101665.53;5276730;28;20043;-48
2023/10/07 01:56:38;;;;;;;5.05;2.20;;;13.80;99.90;;;14.01;100.00;101664.75;5276901;28;20089;-48
2023/10/07 01:59:18;;;;;;;5.05;1.98;;;13.80;99.90;;;14.00;100.00;101669.09;5268922;28;20047;-49
2023/10/07 02:01:58;;;;;;;5.15;2.15;;;13.80;99.90;;;14.00;100.00;101663.84;5282435;27;20051;-49
2023/10/07 02:04:31;;;;;;;4.15;2.08;;;13.80;99.90;;;14.02;100.00;101677.03;5281339;27;20039;-48
2023/10/07 02:07:03;;;;;;;6.43;2.00;;;13.90;99.90;;;14.02;100.00;101661.31;5278247;27;20046;-49
2023/10/07 02:09:40;;;;;;;5.07;2.30;;;13.80;99.90;;;14.01;100.00;101654.25;5270509;27;20047;-48
2023/10/07 02:12:18;;;;;;;5.65;1.90;;;13.90;99.90;;;14.02;100.00;101651.72;5273546;28;20122;-48
2023/10/07 02:14:52;;;;;;;6.28;2.03;;;13.90;99.90;;;14.01;100.00;101657.78;5267777;27;20092;-48
2023/10/07 02:17:26;;;;;;;3.90;1.85;;;13.90;99.90;;;14.02;100.00;101658.69;5285253;28;20079;-49
2023/10/07 02:20:19;;;;;;;3.88;2.15;;;13.80;99.90;;;14.02;100.00;101662.22;5276728;28;20108;-49
2023/10/07 02:22:51;;;;;;;4.97;2.10;;;13.80;99.90;;;14.03;100.00;101663.97;5270847;28;20048;-49
2023/10/07 02:25:27;;;;;;;4.57;2.45;;;13.80;99.90;;;14.00;100.00;101658.63;5269642;28;20516;-49
2023/10/07 02:28:00;;;;;;;5.32;2.28;;;13.80;99.90;;;13.98;100.00;101659.41;5269520;28;20055;-48
2023/10/07 02:30:45;;;;;;;5.55;2.28;;;13.80;99.90;;;13.96;100.00;101648.00;5270333;28;20093;-51
2023/10/07 02:33:20;;;;;;;5.65;2.00;;;13.80;99.90;;;13.93;100.00;101659.25;5276939;28;20047;-48
2023/10/07 02:35:55;;;;;;;6.93;2.13;;;13.80;99.90;;;13.93;100.00;101663.59;5275689;28;20060;-48
2023/10/07 02:38:36;;;;;;;5.60;2.55;;;13.80;99.90;;;13.95;100.00;101667.16;5286146;28;20413;-49
2023/10/07 02:41:16;;;;;;;6.03;2.38;;;13.80;99.90;;;13.96;100.00;101662.00;5295185;28;20115;-49
2023/10/07 02:43:53;;;;;;;4.28;2.22;;;13.80;99.90;;;13.98;100.00;101665.53;5268277;28;20550;-50
2023/10/07 02:46:33;;;;;;;4.75;2.00;;;13.80;99.90;;;14.01;100.00;101670.00;5272462;28;20050;-50
2023/10/07 02:49:06;;;;;;;4.50;2.08;;;13.80;99.90;;;14.02;100.00;101671.81;5270188;28;20494;-48
2023/10/07 02:51:45;;;;;;;3.30;1.70;;;13.80;99.90;;;14.02;100.00;101672.69;5267867;28;20047;-50
2023/10/07 02:54:20;;;;;;;3.38;2.38;;;13.80;99.90;;;14.04;100.00;101664.88;5274297;28;20410;-50
2023/10/07 02:57:34;;;;;;;;;;;13.80;99.90;;;14.03;100.00;101673.59;5271217;28;20134;-50
2023/10/07 02:59:51;;;;;;;5.18;2.28;;;13.90;99.90;;;14.04;100.00;101675.34;5290716;28;19943;-49
2023/10/07 03:02:37;;;;;;;5.43;1.90;;;13.90;99.90;;;14.04;100.00;101681.50;5266163;28;20066;-48
2023/10/07 03:05:14;;;;;;;3.95;1.92;;;13.90;99.90;;;14.04;100.00;101673.63;5275222;28;20085;-49
2023/10/07 03:07:50;;;;;;;3.72;1.80;;;13.90;99.90;;;14.03;100.00;101665.72;5269808;28;20077;-49
2023/10/07 03:10:29;;;;;;;5.45;2.17;;;13.90;99.90;;;14.03;100.00;101653.50;5272584;28;20039;-50
2023/10/07 03:13:02;;;;;;;5.00;2.17;;;13.90;99.90;;;14.01;100.00;101659.50;5272590;28;20039;-50
2023/10/07 03:15:44;;;;;;;4.25;1.90;;;13.90;99.90;;;14.01;100.00;101670.88;5271725;28;20533;-49
2023/10/07 03:18:24;;;;;;;3.88;1.73;;;13.80;99.90;;;14.02;100.00;101664.81;5278599;28;20043;-50
2023/10/07 03:21:06;;;;;;;4.90;1.95;;;13.90;99.90;;;14.01;100.00;101659.50;5266112;28;20044;-48
2023/10/07 03:23:45;;;;;;;4.93;2.20;;;13.80;99.90;;;14.01;100.00;101667.38;5276403;28;20100;-47
2023/10/07 03:26:21;;;;;;;5.22;2.35;;;13.80;99.90;;;13.99;100.00;101661.19;5276053;28;20035;-48
2023/10/07 03:28:54;;;;;;;4.65;2.00;;;13.80;99.90;;;14.00;100.00;101663.84;5279897;27;20057;-49
2023/10/07 03:31:34;;;;;;;3.95;2.05;;;13.80;99.90;;;14.01;100.00;101670.00;5275698;28;20530;-50
2023/10/07 03:34:09;;;;;;;4.45;2.10;;;13.80;99.90;;;14.02;100.00;101669.19;5289390;27;20073;-49
2023/10/07 03:36:45;;;;;;;3.65;2.00;;;13.80;99.90;;;14.03;100.00;101665.72;5284112;27;20116;-48
2023/10/07 03:39:23;;;;;;;4.78;2.20;;;13.80;99.90;;;14.04;100.00;101672.72;5274052;28;20044;-50
2023/10/07 03:41:59;;;;;;;4.03;1.90;;;13.90;99.90;;;14.07;100.00;101675.44;5275726;28;20985;-48
2023/10/07 03:44:32;;;;;;;2.83;1.65;;;13.90;99.90;;;14.09;100.00;101685.16;5283318;27;20059;-49
2023/10/07 03:47:10;;;;;;;6.38;2.38;;;13.90;99.90;;;14.12;100.00;101679.13;5271254;28;20059;-49
2023/10/07 03:49:51;;;;;;;4.85;2.15;;;13.90;99.90;;;14.14;100.00;101672.19;5279229;27;20570;-49
2023/10/07 03:52:28;;;;;;;4.15;2.28;;;13.90;99.90;;;14.16;100.00;101664.41;5271956;28;20100;-51
2023/10/07 03:55:00;;;;;;;5.13;2.10;;;14.00;99.90;;;14.17;100.00;101676.66;5274544;28;20035;-49
2023/10/07 03:57:33;;;;;;;5.60;2.63;;;14.00;99.90;;;14.18;100.00;101668.84;5273635;28;20418;-49
2023/10/07 04:00:11;;;;;;;4.40;2.10;;;14.00;99.90;;;14.18;100.00;101666.22;5280748;28;20054;-49
2023/10/07 04:02:45;;;;;;;4.13;2.08;;;14.00;99.90;;;14.19;100.00;101664.50;5295483;27;20058;-48
2023/10/07 04:05:31;;;;;;;4.43;1.73;;;14.00;99.90;;;14.19;100.00;101664.50;5273055;28;20059;-48
2023/10/07 04:08:06;;;;;;;5.70;2.00;;;14.00;99.90;;;14.19;100.00;101668.00;5276790;28;20039;-50
2023/10/07 04:10:43;;;;;;;3.60;1.77;;;14.00;99.90;;;14.19;100.00;101670.63;5277434;27;20104;-50
2023/10/07 04:13:22;;;;;;;4.40;1.92;;;14.00;99.90;;;14.19;100.00;101662.75;5277523;28;20485;-51
2023/10/07 04:15:59;;;;;;;4.55;2.15;;;14.00;99.90;;;14.20;100.00;101672.41;5273362;27;20071;-48
2023/10/07 04:18:35;;;;;;;4.40;1.98;;;14.00;99.90;;;14.19;100.00;101670.63;5271144;28;20051;-50
2023/10/07 04:21:07;;;;;;;5.30;1.95;;;14.00;99.90;;;14.19;100.00;101660.13;5275292;27;20051;-49
2023/10/07 04:23:43;;;;;;;5.28;2.35;;;14.00;99.90;;;14.21;100.00;101662.81;5272106;27;20103;-49
2023/10/07 04:26:20;;;;;;;3.60;2.40;;;14.10;99.90;;;14.22;100.00;101655.00;5279315;27;20402;-50
2023/10/07 04:28:53;;;;;;;4.05;1.80;;;14.10;99.90;;;14.24;100.00;101653.31;5278419;27;20083;-50
2023/10/07 04:31:34;;;;;;;4.65;1.80;;;14.00;99.90;;;14.23;100.00;101641.06;5275671;27;20107;-48
2023/10/07 04:34:13;;;;;;;3.72;2.10;;;14.10;99.90;;;14.23;100.00;101646.31;5284359;27;20039;-49
2023/10/07 04:37:10;;;;;;;4.30;2.00;;;14.10;99.90;;;14.22;100.00;101641.91;5271653;27;20492;-49
2023/10/07 04:42:39;;;;;;;4.35;2.58;;;14.10;99.90;;;14.25;100.00;101638.47;5271642;27;20398;-48
2023/10/07 04:45:24;;;;;;;4.72;2.35;;;14.10;99.90;;;14.26;100.00;101642.88;5298291;27;20361;-51
2023/10/07 04:48:01;;;;;;;5.15;2.30;;;14.10;99.90;;;14.24;100.00;101641.94;5276300;27;20362;-49
2023/10/07 04:50:36;;;;;;;4.78;2.50;;;14.10;99.90;;;14.24;100.00;101648.06;5274594;27;20456;-48
2023/10/07 04:53:09;;;;;;;;;;;14.10;99.90;;;14.23;100.00;101645.41;5275437;27;20057;-49
2023/10/07 04:55:41;;;;;;;4.20;1.92;;;14.10;99.90;;;14.23;100.00;101651.53;5274346;27;19969;-48
2023/10/07 04:58:15;;;;;;;3.67;2.20;;;14.10;99.90;;;14.22;100.00;101649.78;5271267;28;20784;-49
2023/10/07 05:00:47;;;;;;;3.83;2.40;;;14.10;99.90;;;14.23;100.00;101651.53;5271612;27;20337;-51
2023/10/07 05:03:20;;;;;;;4.80;2.35;;;14.10;99.90;;;14.21;100.00;101632.22;5301340;27;20658;-49
2023/10/07 05:05:55;;;;;;;5.38;2.08;;;14.10;99.90;;;14.24;100.00;101632.34;5274581;27;20051;-47
2023/10/07 05:08:28;;;;;;;5.35;2.10;;;14.10;99.90;;;14.26;100.00;101645.50;5276992;27;20121;-49
2023/10/07 05:11:04;;;;;;;4.38;1.80;;;14.10;99.90;;;14.26;100.00;101640.25;5274322;28;20122;-48
2023/10/07 05:13:42;;;;;;;4.75;1.80;;;14.10;99.90;;;14.28;100.00;101644.72;5273673;27;20470;-50
2023/10/07 05:16:14;;;;;;;5.20;2.33;;;14.20;99.90;;;14.29;100.00;101636.00;5268627;27;20474;-50
2023/10/07 05:18:47;;;;;;;3.75;1.80;;;14.10;99.90;;;14.31;100.00;101633.44;5272253;28;20537;-48
2023/10/07 05:21:22;;;;;;;3.55;1.85;;;14.10;99.90;;;14.31;100.00;101636.06;5271592;28;20063;-49
2023/10/07 05:23:55;;;;;;;5.13;1.98;;;14.20;99.90;;;14.32;100.00;101632.59;5284538;27;20545;-50
2023/10/07 05:26:27;;;;;;;4.43;2.13;;;14.20;99.90;;;14.32;100.00;101629.97;5270628;27;20108;-48
2023/10/07 05:29:02;;;;;;;4.93;2.35;;;14.20;99.90;;;14.33;100.00;101631.75;5272828;27;20521;-48
2023/10/07 05:31:38;;;;;;;4.22;2.10;;;14.20;99.90;;;14.36;100.00;101627.50;5271010;27;20138;-51
2023/10/07 05:34:11;;;;;;;5.20;2.20;;;14.20;99.90;;;14.39;100.00;101622.34;5273760;28;20598;-50
2023/10/07 05:36:46;;;;;;;4.68;1.95;;;14.20;99.90;;;14.39;100.00;101622.34;5276799;28;20498;-49
2023/10/07 05:39:18;;;;;;;;;;;14.30;99.90;;;14.40;100.00;101631.09;5277105;28;20044;-49
2023/10/07 05:41:50;;;;;;;4.75;2.08;;;14.30;99.90;;;14.39;100.00;101627.59;5290981;27;19923;-49
2023/10/07 05:44:22;;;;;;;3.20;1.75;;;14.30;99.90;;;14.42;100.00;101631.19;5280908;27;20054;-50
2023/10/07 05:46:55;;;;;;;4.90;2.47;;;14.30;99.90;;;14.40;100.00;101628.47;5268125;28;20055;-51
2023/10/07 05:49:27;;;;;;;5.20;2.65;;;14.30;99.90;;;14.40;100.00;101626.75;5272705;27;20051;-50
2023/10/07 05:52:01;;;;;;;4.30;1.83;;;14.30;99.90;;;14.40;100.00;101626.75;5271449;28;20089;-50
2023/10/07 05:54:33;;;;;;;5.25;2.60;;;14.20;99.90;;;14.42;100.00;101625.94;5272548;27;20052;-49
2023/10/07 05:57:07;;;;;;;4.40;2.20;;;14.30;99.90;;;14.42;100.00;101633.81;5277181;28;20059;-50
2023/10/07 05:59:42;;;;;;;4.68;2.03;;;14.30;99.90;;;14.44;100.00;101634.72;5272820;28;20532;-50
2023/10/07 06:02:16;;;;;;;5.05;1.90;;;14.30;99.90;;;14.43;100.00;101633.84;5276048;28;20519;-50
2023/10/07 06:04:48;;;;;;;5.20;2.40;;;14.30;99.90;;;14.43;100.00;101625.97;5270644;28;20410;-50
2023/10/07 06:07:22;;;;;;;4.80;2.00;;;14.30;99.90;;;14.44;100.00;101617.25;5270580;28;20051;-49
2023/10/07 06:09:56;;;;;;;4.07;2.10;;;14.30;99.90;;;14.45;100.00;101626.00;5276311;28;20456;-50
2023/10/07 06:12:29;;;;;;;3.88;2.13;;;14.30;99.90;;;14.44;100.00;101624.25;5275357;27;20092;-48
2023/10/07 06:15:01;;;;;;;4.68;1.92;;;14.30;99.90;;;14.43;100.00;101631.22;5272575;28;20052;-48
2023/10/07 06:17:33;;;;;;;4.72;1.90;;;14.30;99.90;;;14.43;100.00;101627.69;5268579;28;20062;-49
2023/10/07 06:20:14;;;;;;;6.05;2.60;;;14.30;99.90;;;14.47;100.00;101629.59;5270772;28;20405;-51
2023/10/07 06:22:48;;;;;;;2.92;1.77;;;14.30;99.90;;;14.51;100.00;101642.88;5276045;28;20049;-49
2023/10/07 06:25:28;;;;;;;5.25;2.10;;;14.30;99.90;;;14.56;100.00;101643.03;5274514;28;20039;-48
2023/10/07 06:28:01;;;;;;;2.92;1.70;;;14.40;99.90;;;14.59;100.00;101650.97;5273931;28;20051;-50
2023/10/07 06:30:33;;;;;;;5.32;2.25;;;14.40;99.90;;;14.60;100.00;101647.50;5272551;28;20055;-49
2023/10/07 06:33:06;;;;;;;4.30;1.77;;;14.40;99.90;;;14.63;100.00;101655.50;5272324;28;20501;-49
2023/10/07 06:35:38;;;;;;;4.88;2.03;;;14.50;99.90;;;14.67;100.00;101660.03;5278759;28;20054;-49
2023/10/07 06:38:19;;;;;;;4.00;2.22;;;14.50;99.90;;;14.70;100.00;101660.09;5268100;28;20440;-48
2023/10/07 06:40:53;;;;;;;4.13;1.95;;;14.50;99.90;;;14.76;100.00;101660.28;5272975;28;20142;-49
2023/10/07 06:43:25;;;;;;;3.08;1.70;;;14.60;99.90;;;14.84;100.00;101664.03;5272368;28;20044;-49
2023/10/07 06:46:01;;;;;;;5.95;1.90;;;14.60;99.90;;;14.93;100.00;101668.69;5272193;28;20048;-48
2023/10/07 06:48:33;;;;;;;3.55;1.65;;;14.70;99.90;;;15.01;100.00;101668.94;5274188;28;20061;-49
2023/10/07 06:51:10;;;;;;;3.53;2.10;;;14.80;99.90;;;15.08;100.00;101678.78;5278616;28;20046;-49
2023/10/07 06:53:45;;;;;;;5.22;2.00;;;14.80;99.90;;;15.14;100.00;101678.97;5275426;28;20044;-50
2023/10/07 06:56:21;;;;;;;5.95;1.90;;;14.90;99.90;;;15.16;100.00;101683.41;5268069;28;20071;-50
2023/10/07 06:58:54;;;;;;;4.57;2.20;;;14.90;99.90;;;15.18;100.00;101693.94;5271941;28;20113;-49
2023/10/07 07:01:51;;;;;;;4.13;2.10;;;15.00;99.90;;;15.19;100.00;101691.41;5276916;27;20150;-49
2023/10/07 07:04:24;;;;;;;3.92;2.25;;;15.00;99.90;;;15.22;100.00;101693.22;5274170;28;20395;-48
2023/10/07 07:07:09;;;;;;;7.45;2.92;;;15.00;99.90;;;15.24;100.00;101693.25;5278101;28;20533;-48
2023/10/07 07:09:58;;;;;;;3.78;2.22;;;15.00;99.90;;;15.25;100.00;101698.53;5275833;27;20706;-48
2023/10/07 07:12:33;;;;;;;4.43;2.03;;;15.00;99.90;;;15.24;100.00;101694.13;5277819;28;20070;-48
2023/10/07 07:15:08;;;;;;;4.00;1.92;;;15.10;99.90;;;15.26;100.00;101689.84;5285933;27;20079;-47
2023/10/07 07:17:43;;;;;;;4.95;1.92;;;15.10;99.90;;;15.45;100.00;101684.28;5287106;27;20070;-48
2023/10/07 07:20:33;;;;;;;4.32;1.90;;;15.30;99.90;;;15.62;100.00;101695.28;5275353;27;20041;-48
2023/10/07 07:23:10;;;;;;;4.03;2.10;;;15.40;99.90;;;15.72;100.00;101693.84;5273012;28;20044;-46
2023/10/07 07:25:50;;;;;;;4.22;2.15;;;15.50;99.90;;;15.84;100.00;101696.78;5276458;27;20172;-45
2023/10/07 07:28:27;;;;;;;4.72;2.05;;;15.60;99.90;;;15.92;100.00;101695.28;5279666;27;20051;-45
2023/10/07 07:30:59;;;;;;;4.28;1.88;;;15.70;99.90;;;15.98;100.00;101702.44;5274803;27;20128;-45
2023/10/07 07:33:35;;;;;;;4.50;1.83;;;15.70;99.90;;;16.02;100.00;101697.28;5274394;27;20502;-45
2023/10/07 07:36:18;;;;;;;3.92;1.90;;;15.80;99.90;;;16.12;100.00;101702.81;5275854;28;20074;-49
2023/10/07 07:38:52;;;;;;;5.30;2.28;;;15.90;99.90;;;16.35;100.00;101706.03;5271673;28;20039;-43
2023/10/07 07:41:34;;;;;;;4.00;2.08;;;16.10;99.90;;;16.55;100.00;101708.28;5272213;27;20116;-43
2023/10/07 07:44:11;;;;;;;7.22;2.33;;;16.30;99.90;;;16.77;100.00;101701.88;5282731;27;20088;-44
2023/10/07 07:46:52;;;;;;;4.75;2.03;;;16.50;99.90;;;16.96;100.00;101694.41;5278835;27;20039;-43
2023/10/07 07:49:27;;;;;;;5.35;1.80;;;16.70;99.90;;;17.12;100.00;101685.97;5288181;27;20067;-43
2023/10/07 07:52:01;;;;;;;6.25;2.17;;;16.90;99.90;;;17.25;100.00;101689.75;5278629;27;20047;-42
2023/10/07 07:54:37;;;;;;;5.63;2.30;;;17.00;99.90;;;17.39;100.00;101690.06;5278384;27;20039;-42
2023/10/07 07:57:12;;;;;;;5.30;2.20;;;17.10;99.90;;;17.42;100.00;101695.41;5294278;27;20043;-48
2023/10/07 07:59:44;;;;;;;5.65;2.22;;;17.20;99.90;;;17.35;100.00;101697.03;5275214;27;20418;-48
2023/10/07 08:02:17;;;;;;;7.20;2.45;;;17.20;99.90;;;17.21;100.00;101690.53;5278616;27;20046;-49
2023/10/07 08:04:50;;;;;;;4.78;2.28;;;17.00;99.90;;;17.13;100.00;101689.50;5291788;27;20465;-49
2023/10/07 08:07:24;;;;;;;6.07;2.20;;;16.90;99.90;;;17.05;100.00;101689.31;5276204;27;20051;-48
2023/10/07 08:09:58;;;;;;;;;;;16.90;99.90;;;17.01;100.00;101696.25;5275655;28;20107;-48
2023/10/07 08:12:34;;;;;;;4.93;2.22;;;16.80;99.90;;;16.97;100.00;101699.69;5278068;27;19926;-48
2023/10/07 08:15:21;;;;;;;6.30;2.22;;;16.80;99.90;;;16.89;100.00;101690.72;5275018;28;20048;-47
2023/10/07 08:17:56;;;;;;;5.28;2.05;;;16.70;99.90;;;16.89;100.00;101690.72;5273571;28;20075;-47
2023/10/07 08:20:34;;;;;;;4.32;2.20;;;16.70;99.90;;;16.92;100.00;101693.44;5270915;28;20134;-47
2023/10/07 08:23:08;;;;;;;5.63;2.60;;;16.70;99.90;;;16.95;100.00;101696.16;5276635;27;20404;-47
2023/10/07 08:25:45;;;;;;;4.45;2.17;;;16.70;99.90;;;17.01;100.00;101691.00;5279162;27;20108;-47
2023/10/07 08:28:23;;;;;;;3.97;1.90;;;16.70;99.90;;;17.09;100.00;101684.16;5273289;28;20050;-48
2023/10/07 08:31:06;;;;;;;3.70;2.05;;;16.80;99.90;;;17.15;100.00;101687.78;5279153;28;20055;-48
2023/10/07 08:33:38;;;;;;;5.47;2.10;;;16.90;99.90;;;17.22;100.00;101685.34;5270233;28;20055;-48
2023/10/07 08:36:10;;;;;;;3.63;1.90;;;16.90;99.90;;;17.30;100.00;101696.03;5281662;27;20051;-48
2023/10/07 08:38:50;;;;;;;5.30;2.30;;;16.90;99.90;;;17.37;100.00;101708.47;5276993;27;20402;-48
2023/10/07 08:41:26;;;;;;;5.13;2.35;;;17.00;99.90;;;17.45;100.00;101704.25;5299235;27;20058;-49
2023/10/07 08:44:13;;;;;;;4.25;1.90;;;17.10;99.90;;;17.52;100.00;101694.72;5286226;27;20054;-48
2023/10/07 08:46:52;;;;;;;3.25;1.73;;;17.20;99.90;;;17.59;100.00;101705.41;5290089;27;20581;-47
2023/10/07 08:49:26;;;;;;;4.38;1.80;;;17.20;99.90;;;17.64;100.00;101710.81;5275238;27;20052;-47
2023/10/07 08:51:59;;;;;;;3.72;1.73;;;17.30;99.90;;;17.71;100.00;101701.25;5275748;28;20051;-46
2023/10/07 08:54:37;;;;;;;3.50;1.80;;;17.30;99.90;;;17.76;100.00;101691.75;5284254;27;20510;-49
2023/10/07 08:57:15;;;;;;;4.90;1.83;;;17.40;99.90;;;17.84;100.00;101683.09;5272229;27;20051;-48
2023/10/07 08:59:52;;;;;;;3.47;1.77;;;17.40;99.90;;;17.98;100.00;101691.28;5271277;28;20050;-48
2023/10/07 09:02:27;;;;;;;3.90;1.50;;;17.50;99.90;;;18.25;100.00;101693.50;5277356;27;20045;-48
2023/10/07 09:05:05;;;;;;;3.75;1.77;;;17.70;99.90;;;18.48;100.00;101690.41;5284891;28;20058;-48
2023/10/07 09:07:38;;;;;;;4.75;1.98;;;17.90;99.90;;;18.60;100.00;101694.13;5272142;27;20058;-49
2023/10/07 09:10:14;;;;;;;4.18;1.98;;;18.10;99.90;;;18.62;100.00;101692.38;5275454;28;20048;-49
2023/10/07 09:12:50;;;;;;;5.80;1.90;;;18.10;99.90;;;18.63;100.00;101688.88;5276631;27;20100;-48
2023/10/07 09:15:27;;;;;;;2.70;1.50;;;18.10;99.90;;;18.61;100.00;101687.97;5274363;28;20039;-48
2023/10/07 09:18:03;;;;;;;3.80;1.70;;;18.20;99.90;;;18.62;100.00;101700.31;5270574;28;20051;-48
2023/10/07 09:20:45;;;;;;;3.33;1.60;;;18.20;99.90;;;18.63;100.00;101690.63;5276425;27;20039;-48
2023/10/07 09:23:19;;;;;;;3.80;1.90;;;18.20;99.90;;;18.63;100.00;101688.88;5275646;28;20299;-48
2023/10/07 09:25:52;;;;;;;3.42;1.85;;;18.20;99.90;;;18.68;100.00;101695.16;5288744;27;20184;-48
2023/10/07 09:28:31;;;;;;;5.25;1.90;;;18.20;99.90;;;18.74;100.00;101691.75;5277018;27;20084;-49
2023/10/07 09:31:06;;;;;;;4.13;1.83;;;18.30;99.90;;;18.81;100.00;101692.72;5272628;28;20043;-48
2023/10/07 09:33:41;;;;;;;3.38;1.38;;;18.30;99.90;;;18.89;100.00;101702.53;5272452;27;20075;-46
2023/10/07 09:36:33;;;;;;;3.83;1.90;;;18.40;99.90;;;19.03;100.00;101694.81;5283428;27;20573;-47
2023/10/07 09:39:31;;;;;;;3.33;1.67;;;18.50;99.90;;;19.38;100.00;101697.06;5278980;27;20061;-47
2023/10/07 09:42:25;;;;;;;3.97;2.08;;;18.80;99.90;;;19.91;100.00;101694.19;5274804;27;20050;-48
2023/10/07 09:45:09;;;;;;;3.70;1.90;;;19.20;99.90;;;20.39;100.00;101698.19;5278260;27;20055;-49
2023/10/07 09:47:44;;;;;;;3.55;1.50;;;19.60;99.90;;;20.78;100.00;101698.53;5285006;27;20052;-49
2023/10/07 09:50:25;;;;;;;4.40;2.00;;;20.00;99.90;;;21.10;100.00;101697.84;5269633;28;20267;-49
2023/10/07 09:53:27;;;;;;;2.92;1.38;;;20.40;99.90;;;21.42;100.00;101702.47;5269337;28;20522;-50
2023/10/07 09:56:21;;;;;;;3.25;1.75;;;20.60;99.90;;;21.63;100.00;101702.56;5281951;27;20134;-48
2023/10/07 09:59:15;;;;;;;3.70;1.80;;;20.90;99.90;;;21.84;100.00;101701.72;5283139;27;20054;-48
2023/10/07 10:02:25;;;;;;;5.13;1.77;;;21.10;99.90;;;22.04;100.00;101699.13;5274136;27;20055;-49
2023/10/07 10:05:31;;;;;;;3.03;1.50;;;21.30;99.90;;;22.27;100.00;101700.09;5281964;28;20075;-48
2023/10/07 10:08:45;;;;;;;3.78;1.58;;;21.50;99.90;;;22.41;100.00;101700.97;5275914;28;20070;-47
2023/10/07 10:11:30;;;;;;;4.35;1.77;;;21.70;99.90;;;22.60;100.00;101700.97;5284120;27;20047;-48
2023/10/07 10:14:18;;;;;;;3.67;1.50;;;21.80;99.90;;;22.76;100.00;101702.75;5268885;28;20059;-48
2023/10/07 10:16:54;;;;;;;2.17;1.00;;;22.00;99.90;;;22.92;100.00;101693.88;5268873;28;20047;-49
2023/10/07 10:19:37;;;;;;;3.17;1.30;;;22.20;99.90;;;23.10;100.00;101692.09;5272270;28;20051;-48
2023/10/07 10:22:12;;;;;;;2.95;1.20;;;22.30;99.90;;;23.16;97.49;101687.63;5290369;28;20047;-48
2023/10/07 10:24:45;;;;;;;2.85;1.30;;;22.40;99.90;;;23.29;97.02;101692.03;5273561;28;20169;-49
2023/10/07 10:27:18;;;;;;;3.10;1.30;;;22.50;99.90;;;23.44;96.37;101683.09;5271200;28;20087;-49
2023/10/07 10:29:55;;;;;;;3.20;1.25;;;22.60;99.90;;;23.47;95.88;101677.78;5271058;28;20129;-48
2023/10/07 10:32:29;;;;;;;3.05;1.33;;;22.70;99.90;;;23.40;95.49;101673.34;5280521;28;20043;-49
2023/10/07 10:35:06;;;;;;;3.75;1.77;;;22.70;99.90;;;23.34;95.81;101665.38;5275103;28;20120;-49
2023/10/07 10:37:40;;;;;;;2.70;1.25;;;22.60;99.90;;;23.24;95.96;101664.53;5274516;28;20039;-49
2023/10/07 10:40:14;;;;;;;3.33;1.50;;;22.60;99.90;;;23.09;96.10;101659.28;5281663;27;20126;-49
2023/10/07 10:42:49;;;;;;;3.70;1.67;;;22.50;99.90;;;22.96;97.59;101676.16;5277269;27;20055;-49
2023/10/07 10:45:24;;;;;;;3.53;1.27;;;22.40;99.90;;;22.94;97.85;101668.16;5286211;27;20051;-48
2023/10/07 10:47:59;;;;;;;3.00;1.52;;;22.30;99.90;;;22.96;97.39;101660.22;5281618;27;20043;-49
2023/10/07 10:50:32;;;;;;;3.70;1.40;;;22.30;99.90;;;23.04;98.29;101662.84;5275685;27;20558;-49
2023/10/07 10:53:06;;;;;;;3.30;1.30;;;22.30;99.90;;;23.16;98.07;101663.69;5272053;28;20039;-49